Slayton, MN (56172)

12:56 PM CDT on September 01, 2015 (GMT -0500)
Slayton | | Change Station
CLOSE
Current Station
Airport
Location: Slayton,
Elevation: 1624 ft
Nearby Weather Stations

Elev 1624 ft 43.99 °N, 95.78 °W | Updated 3 minutes ago

Scattered Clouds
Scattered Clouds
80 °F
Feels Like 84 °F
N
0
Wind Variable Wind from North

Today
High -- | Low -- °F
--% Chance of Precip.
Yesterday
High -- | Low -- °F
Precip. -- in
6:46 AM 7:59 PM
Waning Gibbous, 87% visible
Pressure 29.94 in
Visibility 10.0 miles
Clouds Scattered Clouds 2000 ft
Scattered Clouds 2500 ft
Scattered Clouds 11000 ft
Heat Index 84 °F
Dew Point 71 °F
Humidity 74%
Rainfall 0.00 in
Snow Depth Not available.
UV 7 out of 12
Pollen 10.10 out of 12
Air Quality Not available.
Flu Activity Not available.
METAR KDVP 011753Z AUTO 00000KT 10SM SCT020 SCT025 SCT110 27/22 A2994 RMK AO2 T02670218 10270 20175
Pressure 29.94 in
Visibility 10.0 miles
Clouds Scattered Clouds 2000 ft
Scattered Clouds 2500 ft
Scattered Clouds 11000 ft
Heat Index 84 °F
Dew Point 71 °F
Humidity 74%
Rainfall 0.00 in
Snow Depth Not available.
UV 7 out of 12
Pollen 10.10 out of 12
Air Quality Not available.
Flu Activity Not available.
METAR KDVP 011753Z AUTO 00000KT 10SM SCT020 SCT025 SCT110 27/22 A2994 RMK AO2 T02670218 10270 20175

10-Day Weather Forecast

×

Almanac

Astronomy

Sep. 01, 2015 Rise Set
Actual Time
Civil Twilight
Nautical Twilight
Astronomical Twilight
Moon
Length of Visible Light
Length of Day
Tomorrow will be .
, % of the Moon is Illuminated

Today's Extremes

State Highs State Lows

Community

WunderPhotos

Upload Photos

1,851,569 photos uploaded!

WunderBlogs® & News

Nearby

Air Quality

  Air Quality AQ Index Pollutant
Not available.

Snow Depth

Station Depth Elevation

Earthquake Activity

City Distance Mag. Time & Date
Minimum magnitude displayed is 2.5.

Coastal Water Temperatures

Place Temperature

Stations

Nearby Weather Stations

Station Location Temp. Windchill Dew Point Humidity Wind Precip. Elev Updated Type